sensor_id;sensor_type;location;lat;lon;timestamp;temperature;humidity
17994;DHT22;9122;48.406;9.984;2022-07-06T00:00:35;20.80;67.70
17994;DHT22;9122;48.406;9.984;2022-07-06T00:03:19;20.80;67.90
17994;DHT22;9122;48.406;9.984;2022-07-06T00:06:04;20.70;68.20
17994;DHT22;9122;48.406;9.984;2022-07-06T00:08:50;20.60;68.30
17994;DHT22;9122;48.406;9.984;2022-07-06T00:11:34;20.60;68.50
17994;DHT22;9122;48.406;9.984;2022-07-06T00:14:19;20.60;68.70
17994;DHT22;9122;48.406;9.984;2022-07-06T00:17:04;20.50;69.00
17994;DHT22;9122;48.406;9.984;2022-07-06T00:19:49;20.40;69.20
17994;DHT22;9122;48.406;9.984;2022-07-06T00:22:33;20.40;69.40
17994;DHT22;9122;48.406;9.984;2022-07-06T00:25:17;20.40;70.40
17994;DHT22;9122;48.406;9.984;2022-07-06T00:28:02;20.40;69.80
17994;DHT22;9122;48.406;9.984;2022-07-06T00:30:47;20.30;69.90
17994;DHT22;9122;48.406;9.984;2022-07-06T00:33:32;20.30;70.00
17994;DHT22;9122;48.406;9.984;2022-07-06T00:36:16;20.30;69.90
17994;DHT22;9122;48.406;9.984;2022-07-06T00:39:01;20.20;69.80
17994;DHT22;9122;48.406;9.984;2022-07-06T00:41:46;20.20;70.00
17994;DHT22;9122;48.406;9.984;2022-07-06T00:44:30;20.10;69.90
17994;DHT22;9122;48.406;9.984;2022-07-06T00:47:16;20.10;69.60
17994;DHT22;9122;48.406;9.984;2022-07-06T00:50:02;20.10;69.50
17994;DHT22;9122;48.406;9.984;2022-07-06T00:53:01;20.10;69.50
17994;DHT22;9122;48.406;9.984;2022-07-06T00:55:46;20.00;69.40
17994;DHT22;9122;48.406;9.984;2022-07-06T00:58:31;20.00;69.40
17994;DHT22;9122;48.406;9.984;2022-07-06T01:01:15;19.90;69.50
17994;DHT22;9122;48.406;9.984;2022-07-06T01:04:00;19.90;69.60
17994;DHT22;9122;48.406;9.984;2022-07-06T01:06:45;19.90;69.40
17994;DHT22;9122;48.406;9.984;2022-07-06T01:09:30;19.90;69.30
17994;DHT22;9122;48.406;9.984;2022-07-06T01:12:15;19.80;69.20
17994;DHT22;9122;48.406;9.984;2022-07-06T01:15:01;19.80;69.10
17994;DHT22;9122;48.406;9.984;2022-07-06T01:17:46;19.80;68.90
17994;DHT22;9122;48.406;9.984;2022-07-06T01:20:31;19.70;69.00
17994;DHT22;9122;48.406;9.984;2022-07-06T01:23:15;19.70;69.20
17994;DHT22;9122;48.406;9.984;2022-07-06T01:26:00;19.70;69.50
17994;DHT22;9122;48.406;9.984;2022-07-06T01:28:45;19.60;69.50
17994;DHT22;9122;48.406;9.984;2022-07-06T01:31:30;19.60;69.80
17994;DHT22;9122;48.406;9.984;2022-07-06T01:34:17;19.60;70.20
17994;DHT22;9122;48.406;9.984;2022-07-06T01:37:01;19.60;70.30
17994;DHT22;9122;48.406;9.984;2022-07-06T01:39:46;19.50;70.20
17994;DHT22;9122;48.406;9.984;2022-07-06T01:42:31;19.50;70.20
17994;DHT22;9122;48.406;9.984;2022-07-06T01:45:15;19.50;70.20
17994;DHT22;9122;48.406;9.984;2022-07-06T01:48:00;19.40;70.30
17994;DHT22;9122;48.406;9.984;2022-07-06T01:50:44;19.40;70.50
17994;DHT22;9122;48.406;9.984;2022-07-06T01:53:29;19.40;70.60
17994;DHT22;9122;48.406;9.984;2022-07-06T01:56:13;19.30;70.50
17994;DHT22;9122;48.406;9.984;2022-07-06T01:58:57;19.30;70.40
17994;DHT22;9122;48.406;9.984;2022-07-06T02:01:42;19.30;70.30
17994;DHT22;9122;48.406;9.984;2022-07-06T02:04:27;19.30;70.40
17994;DHT22;9122;48.406;9.984;2022-07-06T02:07:11;19.30;70.50
17994;DHT22;9122;48.406;9.984;2022-07-06T02:09:56;19.20;70.30
17994;DHT22;9122;48.406;9.984;2022-07-06T02:12:40;19.20;70.20
17994;DHT22;9122;48.406;9.984;2022-07-06T02:15:25;19.20;70.00
17994;DHT22;9122;48.406;9.984;2022-07-06T02:18:09;19.10;69.90
17994;DHT22;9122;48.406;9.984;2022-07-06T02:20:54;19.10;69.90
17994;DHT22;9122;48.406;9.984;2022-07-06T02:23:39;19.10;69.90
17994;DHT22;9122;48.406;9.984;2022-07-06T02:26:23;19.00;70.10
17994;DHT22;9122;48.406;9.984;2022-07-06T02:29:07;19.00;70.90
17994;DHT22;9122;48.406;9.984;2022-07-06T02:31:51;18.90;70.10
17994;DHT22;9122;48.406;9.984;2022-07-06T02:34:36;18.90;70.20
17994;DHT22;9122;48.406;9.984;2022-07-06T02:37:21;18.90;70.20
17994;DHT22;9122;48.406;9.984;2022-07-06T02:40:06;18.80;70.30
17994;DHT22;9122;48.406;9.984;2022-07-06T02:42:50;18.80;70.50
17994;DHT22;9122;48.406;9.984;2022-07-06T02:45:35;18.80;70.70
17994;DHT22;9122;48.406;9.984;2022-07-06T02:48:19;18.70;71.00
17994;DHT22;9122;48.406;9.984;2022-07-06T02:51:05;18.70;71.30
17994;DHT22;9122;48.406;9.984;2022-07-06T02:53:50;18.60;71.50
17994;DHT22;9122;48.406;9.984;2022-07-06T02:56:34;18.60;71.80
17994;DHT22;9122;48.406;9.984;2022-07-06T02:59:19;18.60;71.90
17994;DHT22;9122;48.406;9.984;2022-07-06T03:02:04;18.50;71.90
17994;DHT22;9122;48.406;9.984;2022-07-06T03:04:49;18.50;72.00
17994;DHT22;9122;48.406;9.984;2022-07-06T03:07:34;18.50;72.00
17994;DHT22;9122;48.406;9.984;2022-07-06T03:10:18;18.50;72.10
17994;DHT22;9122;48.406;9.984;2022-07-06T03:13:03;18.50;71.90
17994;DHT22;9122;48.406;9.984;2022-07-06T03:15:47;18.50;71.70
17994;DHT22;9122;48.406;9.984;2022-07-06T03:18:32;18.40;71.30
17994;DHT22;9122;48.406;9.984;2022-07-06T03:21:16;18.40;71.20
17994;DHT22;9122;48.406;9.984;2022-07-06T03:24:01;18.40;71.00
17994;DHT22;9122;48.406;9.984;2022-07-06T03:26:45;18.40;71.00
17994;DHT22;9122;48.406;9.984;2022-07-06T03:29:30;18.40;71.20
17994;DHT22;9122;48.406;9.984;2022-07-06T03:32:15;18.40;71.10
17994;DHT22;9122;48.406;9.984;2022-07-06T03:34:59;18.40;71.10
17994;DHT22;9122;48.406;9.984;2022-07-06T03:37:43;18.40;70.80
17994;DHT22;9122;48.406;9.984;2022-07-06T03:40:28;18.40;70.70
17994;DHT22;9122;48.406;9.984;2022-07-06T03:43:12;18.40;70.70
17994;DHT22;9122;48.406;9.984;2022-07-06T03:45:57;18.40;70.20
17994;DHT22;9122;48.406;9.984;2022-07-06T03:48:41;18.40;69.80
17994;DHT22;9122;48.406;9.984;2022-07-06T03:51:26;18.40;69.50
17994;DHT22;9122;48.406;9.984;2022-07-06T03:54:10;18.40;69.40
17994;DHT22;9122;48.406;9.984;2022-07-06T03:56:55;18.40;69.30
17994;DHT22;9122;48.406;9.984;2022-07-06T03:59:40;18.40;69.20
17994;DHT22;9122;48.406;9.984;2022-07-06T04:02:24;18.40;69.30
17994;DHT22;9122;48.406;9.984;2022-07-06T04:05:09;18.40;69.30
17994;DHT22;9122;48.406;9.984;2022-07-06T04:07:53;18.40;69.30
17994;DHT22;9122;48.406;9.984;2022-07-06T04:10:38;18.40;69.30
17994;DHT22;9122;48.406;9.984;2022-07-06T04:13:23;18.40;69.40
17994;DHT22;9122;48.406;9.984;2022-07-06T04:16:09;18.40;69.40
17994;DHT22;9122;48.406;9.984;2022-07-06T04:18:53;18.40;69.40
17994;DHT22;9122;48.406;9.984;2022-07-06T04:21:37;18.40;69.40
17994;DHT22;9122;48.406;9.984;2022-07-06T04:24:22;18.40;69.60
17994;DHT22;9122;48.406;9.984;2022-07-06T04:27:07;18.40;69.70
17994;DHT22;9122;48.406;9.984;2022-07-06T04:29:53;18.40;69.80
17994;DHT22;9122;48.406;9.984;2022-07-06T04:32:37;18.40;70.70
17994;DHT22;9122;48.406;9.984;2022-07-06T04:35:22;18.40;70.10
17994;DHT22;9122;48.406;9.984;2022-07-06T04:38:06;18.40;70.20
17994;DHT22;9122;48.406;9.984;2022-07-06T04:40:50;18.40;70.30
17994;DHT22;9122;48.406;9.984;2022-07-06T04:43:34;18.40;70.60
17994;DHT22;9122;48.406;9.984;2022-07-06T04:46:19;18.40;70.90
17994;DHT22;9122;48.406;9.984;2022-07-06T04:49:04;18.40;71.20
17994;DHT22;9122;48.406;9.984;2022-07-06T04:51:48;18.40;71.30
17994;DHT22;9122;48.406;9.984;2022-07-06T04:54:33;18.30;71.40
17994;DHT22;9122;48.406;9.984;2022-07-06T04:57:17;18.30;71.50
17994;DHT22;9122;48.406;9.984;2022-07-06T05:00:03;18.30;71.60
17994;DHT22;9122;48.406;9.984;2022-07-06T05:02:48;18.30;71.80
17994;DHT22;9122;48.406;9.984;2022-07-06T05:05:33;18.30;72.10
17994;DHT22;9122;48.406;9.984;2022-07-06T05:08:18;18.30;72.20
17994;DHT22;9122;48.406;9.984;2022-07-06T05:11:02;18.30;72.90
17994;DHT22;9122;48.406;9.984;2022-07-06T05:13:47;18.30;72.30
17994;DHT22;9122;48.406;9.984;2022-07-06T05:16:32;18.40;72.40
17994;DHT22;9122;48.406;9.984;2022-07-06T05:19:16;18.40;72.40
17994;DHT22;9122;48.406;9.984;2022-07-06T05:22:01;18.40;72.30
17994;DHT22;9122;48.406;9.984;2022-07-06T05:24:46;18.40;72.30
17994;DHT22;9122;48.406;9.984;2022-07-06T05:27:30;18.50;73.30
17994;DHT22;9122;48.406;9.984;2022-07-06T05:30:15;18.50;72.50
17994;DHT22;9122;48.406;9.984;2022-07-06T05:33:00;18.50;72.30
17994;DHT22;9122;48.406;9.984;2022-07-06T05:35:44;18.60;72.30
17994;DHT22;9122;48.406;9.984;2022-07-06T05:38:29;18.60;72.50
17994;DHT22;9122;48.406;9.984;2022-07-06T05:41:14;18.70;72.70
17994;DHT22;9122;48.406;9.984;2022-07-06T05:43:59;18.70;72.20
17994;DHT22;9122;48.406;9.984;2022-07-06T05:46:43;18.80;72.10
17994;DHT22;9122;48.406;9.984;2022-07-06T05:49:28;18.90;72.10
17994;DHT22;9122;48.406;9.984;2022-07-06T05:52:31;18.90;71.80
17994;DHT22;9122;48.406;9.984;2022-07-06T05:55:15;19.00;71.80
17994;DHT22;9122;48.406;9.984;2022-07-06T05:58:00;19.10;71.80
17994;DHT22;9122;48.406;9.984;2022-07-06T06:00:44;19.20;71.40
17994;DHT22;9122;48.406;9.984;2022-07-06T06:03:29;19.20;70.80
17994;DHT22;9122;48.406;9.984;2022-07-06T06:06:13;19.30;70.60
17994;DHT22;9122;48.406;9.984;2022-07-06T06:08:58;19.40;70.30
17994;DHT22;9122;48.406;9.984;2022-07-06T06:11:43;19.60;70.00
17994;DHT22;9122;48.406;9.984;2022-07-06T06:14:27;19.60;69.50
17994;DHT22;9122;48.406;9.984;2022-07-06T06:17:11;19.70;69.40
17994;DHT22;9122;48.406;9.984;2022-07-06T06:19:57;19.80;69.10
17994;DHT22;9122;48.406;9.984;2022-07-06T06:22:53;19.90;68.90
17994;DHT22;9122;48.406;9.984;2022-07-06T06:25:38;20.00;68.60
17994;DHT22;9122;48.406;9.984;2022-07-06T06:28:23;20.10;68.50
17994;DHT22;9122;48.406;9.984;2022-07-06T06:31:08;20.30;68.30
17994;DHT22;9122;48.406;9.984;2022-07-06T06:33:52;20.30;68.40
17994;DHT22;9122;48.406;9.984;2022-07-06T06:36:37;20.40;68.30
17994;DHT22;9122;48.406;9.984;2022-07-06T06:39:21;20.50;67.90
17994;DHT22;9122;48.406;9.984;2022-07-06T06:42:06;20.60;67.90
17994;DHT22;9122;48.406;9.984;2022-07-06T06:44:51;20.70;67.60
17994;DHT22;9122;48.406;9.984;2022-07-06T06:47:36;20.80;67.50
17994;DHT22;9122;48.406;9.984;2022-07-06T06:50:21;21.00;66.10
17994;DHT22;9122;48.406;9.984;2022-07-06T06:53:07;21.00;65.10
17994;DHT22;9122;48.406;9.984;2022-07-06T06:55:52;21.10;64.90
17994;DHT22;9122;48.406;9.984;2022-07-06T06:58:36;21.30;64.90
17994;DHT22;9122;48.406;9.984;2022-07-06T07:01:21;21.30;64.40
17994;DHT22;9122;48.406;9.984;2022-07-06T07:04:05;21.40;64.20
17994;DHT22;9122;48.406;9.984;2022-07-06T07:06:50;21.50;64.80
17994;DHT22;9122;48.406;9.984;2022-07-06T07:09:34;21.60;63.70
17994;DHT22;9122;48.406;9.984;2022-07-06T07:12:19;21.70;63.60
17994;DHT22;9122;48.406;9.984;2022-07-06T07:15:04;21.80;63.50
17994;DHT22;9122;48.406;9.984;2022-07-06T07:17:48;21.80;63.40
17994;DHT22;9122;48.406;9.984;2022-07-06T07:20:33;21.90;63.20
17994;DHT22;9122;48.406;9.984;2022-07-06T07:23:18;22.00;62.80
17994;DHT22;9122;48.406;9.984;2022-07-06T07:26:02;22.10;62.70
17994;DHT22;9122;48.406;9.984;2022-07-06T07:28:47;22.20;62.40
17994;DHT22;9122;48.406;9.984;2022-07-06T07:31:32;22.30;62.20
17994;DHT22;9122;48.406;9.984;2022-07-06T07:34:16;22.40;61.70
17994;DHT22;9122;48.406;9.984;2022-07-06T07:37:01;22.50;60.90
17994;DHT22;9122;48.406;9.984;2022-07-06T07:39:46;22.60;60.30
17994;DHT22;9122;48.406;9.984;2022-07-06T07:42:31;22.70;59.00
17994;DHT22;9122;48.406;9.984;2022-07-06T07:45:15;22.80;58.30
17994;DHT22;9122;48.406;9.984;2022-07-06T07:47:59;22.90;57.80
17994;DHT22;9122;48.406;9.984;2022-07-06T07:50:44;23.00;58.00
17994;DHT22;9122;48.406;9.984;2022-07-06T07:53:28;23.10;57.70
17994;DHT22;9122;48.406;9.984;2022-07-06T07:56:13;23.10;57.50
17994;DHT22;9122;48.406;9.984;2022-07-06T07:58:58;23.30;57.40
17994;DHT22;9122;48.406;9.984;2022-07-06T08:01:42;23.40;56.60
17994;DHT22;9122;48.406;9.984;2022-07-06T08:04:27;23.40;56.20
17994;DHT22;9122;48.406;9.984;2022-07-06T08:07:11;23.50;55.90
17994;DHT22;9122;48.406;9.984;2022-07-06T08:09:56;23.60;55.90
17994;DHT22;9122;48.406;9.984;2022-07-06T08:12:40;23.70;55.50
17994;DHT22;9122;48.406;9.984;2022-07-06T08:15:25;23.80;55.40
17994;DHT22;9122;48.406;9.984;2022-07-06T08:18:10;23.90;54.70
17994;DHT22;9122;48.406;9.984;2022-07-06T08:20:54;24.00;54.60
17994;DHT22;9122;48.406;9.984;2022-07-06T08:23:40;24.00;54.60
17994;DHT22;9122;48.406;9.984;2022-07-06T08:26:25;24.10;54.50
17994;DHT22;9122;48.406;9.984;2022-07-06T08:29:09;24.20;54.00
17994;DHT22;9122;48.406;9.984;2022-07-06T08:31:54;24.30;53.80
17994;DHT22;9122;48.406;9.984;2022-07-06T08:34:39;24.40;53.50
17994;DHT22;9122;48.406;9.984;2022-07-06T08:37:23;24.50;53.30
17994;DHT22;9122;48.406;9.984;2022-07-06T08:40:09;24.50;53.10
17994;DHT22;9122;48.406;9.984;2022-07-06T08:42:55;24.60;51.90
17994;DHT22;9122;48.406;9.984;2022-07-06T08:45:40;24.70;51.30
17994;DHT22;9122;48.406;9.984;2022-07-06T08:48:27;24.80;51.10
17994;DHT22;9122;48.406;9.984;2022-07-06T08:51:15;24.90;51.00
17994;DHT22;9122;48.406;9.984;2022-07-06T08:53:59;24.90;51.10
17994;DHT22;9122;48.406;9.984;2022-07-06T08:56:46;25.00;51.10
17994;DHT22;9122;48.406;9.984;2022-07-06T08:59:30;25.10;51.10
17994;DHT22;9122;48.406;9.984;2022-07-06T09:02:15;25.20;50.80
17994;DHT22;9122;48.406;9.984;2022-07-06T09:05:00;25.30;50.70
17994;DHT22;9122;48.406;9.984;2022-07-06T09:07:49;25.40;50.40
17994;DHT22;9122;48.406;9.984;2022-07-06T09:10:33;25.40;50.10
17994;DHT22;9122;48.406;9.984;2022-07-06T09:13:18;25.50;49.80
17994;DHT22;9122;48.406;9.984;2022-07-06T09:16:15;25.60;49.50
17994;DHT22;9122;48.406;9.984;2022-07-06T09:18:59;25.70;49.20
17994;DHT22;9122;48.406;9.984;2022-07-06T09:21:43;25.70;48.50
17994;DHT22;9122;48.406;9.984;2022-07-06T09:24:28;25.80;49.00
17994;DHT22;9122;48.406;9.984;2022-07-06T09:27:16;25.90;49.00
17994;DHT22;9122;48.406;9.984;2022-07-06T09:30:02;26.00;48.70
17994;DHT22;9122;48.406;9.984;2022-07-06T09:32:49;26.10;48.80
17994;DHT22;9122;48.406;9.984;2022-07-06T09:35:38;26.10;48.10
17994;DHT22;9122;48.406;9.984;2022-07-06T09:38:26;26.20;47.60
17994;DHT22;9122;48.406;9.984;2022-07-06T09:41:10;26.30;46.80
17994;DHT22;9122;48.406;9.984;2022-07-06T09:43:55;26.30;46.70
17994;DHT22;9122;48.406;9.984;2022-07-06T09:46:46;26.20;47.20
17994;DHT22;9122;48.406;9.984;2022-07-06T09:49:31;26.20;47.70
17994;DHT22;9122;48.406;9.984;2022-07-06T09:52:15;26.30;47.30
17994;DHT22;9122;48.406;9.984;2022-07-06T09:55:00;26.40;47.10
17994;DHT22;9122;48.406;9.984;2022-07-06T09:57:54;26.40;47.00
17994;DHT22;9122;48.406;9.984;2022-07-06T10:00:39;26.60;46.60
17994;DHT22;9122;48.406;9.984;2022-07-06T10:03:24;26.70;46.50
17994;DHT22;9122;48.406;9.984;2022-07-06T10:06:08;26.70;46.40
17994;DHT22;9122;48.406;9.984;2022-07-06T10:08:57;26.80;45.40
17994;DHT22;9122;48.406;9.984;2022-07-06T10:12:00;26.90;45.40
17994;DHT22;9122;48.406;9.984;2022-07-06T10:14:44;26.90;45.30
17994;DHT22;9122;48.406;9.984;2022-07-06T10:17:30;26.90;45.30
17994;DHT22;9122;48.406;9.984;2022-07-06T10:20:15;26.80;45.30
17994;DHT22;9122;48.406;9.984;2022-07-06T10:23:01;26.70;45.10
17994;DHT22;9122;48.406;9.984;2022-07-06T10:25:47;26.70;44.70
17994;DHT22;9122;48.406;9.984;2022-07-06T10:28:32;26.70;44.80
17994;DHT22;9122;48.406;9.984;2022-07-06T10:31:17;26.70;45.20
17994;DHT22;9122;48.406;9.984;2022-07-06T10:34:06;26.70;45.10
17994;DHT22;9122;48.406;9.984;2022-07-06T10:36:52;26.70;44.40
17994;DHT22;9122;48.406;9.984;2022-07-06T10:39:39;26.70;44.50
17994;DHT22;9122;48.406;9.984;2022-07-06T10:42:46;26.80;44.90
17994;DHT22;9122;48.406;9.984;2022-07-06T10:48:21;27.00;44.10
17994;DHT22;9122;48.406;9.984;2022-07-06T10:51:07;27.00;44.10
17994;DHT22;9122;48.406;9.984;2022-07-06T10:54:00;27.10;44.60
17994;DHT22;9122;48.406;9.984;2022-07-06T10:56:50;27.10;44.40
17994;DHT22;9122;48.406;9.984;2022-07-06T10:59:35;27.00;44.30
17994;DHT22;9122;48.406;9.984;2022-07-06T11:02:22;27.00;44.40
17994;DHT22;9122;48.406;9.984;2022-07-06T11:05:39;27.00;44.20
17994;DHT22;9122;48.406;9.984;2022-07-06T11:14:17;27.20;42.90
17994;DHT22;9122;48.406;9.984;2022-07-06T11:17:03;27.30;42.30
17994;DHT22;9122;48.406;9.984;2022-07-06T11:19:56;27.30;42.70
17994;DHT22;9122;48.406;9.984;2022-07-06T11:22:41;27.40;43.40
17994;DHT22;9122;48.406;9.984;2022-07-06T11:25:25;27.40;43.70
17994;DHT22;9122;48.406;9.984;2022-07-06T11:28:10;27.30;43.80
17994;DHT22;9122;48.406;9.984;2022-07-06T11:30:59;27.30;43.80
17994;DHT22;9122;48.406;9.984;2022-07-06T11:33:47;27.30;43.30
17994;DHT22;9122;48.406;9.984;2022-07-06T11:36:32;27.30;43.20
17994;DHT22;9122;48.406;9.984;2022-07-06T11:39:16;27.30;43.50
17994;DHT22;9122;48.406;9.984;2022-07-06T11:42:02;27.40;43.50
17994;DHT22;9122;48.406;9.984;2022-07-06T11:44:48;27.40;43.60
17994;DHT22;9122;48.406;9.984;2022-07-06T11:47:34;27.50;43.50
17994;DHT22;9122;48.406;9.984;2022-07-06T11:50:21;27.60;43.10
17994;DHT22;9122;48.406;9.984;2022-07-06T11:53:07;27.60;43.20
17994;DHT22;9122;48.406;9.984;2022-07-06T11:55:51;27.60;41.90
17994;DHT22;9122;48.406;9.984;2022-07-06T11:58:36;27.60;42.70
17994;DHT22;9122;48.406;9.984;2022-07-06T12:01:24;27.70;42.70
17994;DHT22;9122;48.406;9.984;2022-07-06T12:04:09;27.70;42.40
17994;DHT22;9122;48.406;9.984;2022-07-06T12:06:53;27.70;41.90
17994;DHT22;9122;48.406;9.984;2022-07-06T12:09:40;27.80;41.70
17994;DHT22;9122;48.406;9.984;2022-07-06T12:12:25;27.80;42.30
17994;DHT22;9122;48.406;9.984;2022-07-06T12:15:10;27.80;42.10
17994;DHT22;9122;48.406;9.984;2022-07-06T12:17:54;27.80;41.70
17994;DHT22;9122;48.406;9.984;2022-07-06T12:20:38;27.80;41.70
17994;DHT22;9122;48.406;9.984;2022-07-06T12:23:23;27.80;42.00
17994;DHT22;9122;48.406;9.984;2022-07-06T12:26:08;27.80;41.70
17994;DHT22;9122;48.406;9.984;2022-07-06T12:31:57;27.90;42.20
17994;DHT22;9122;48.406;9.984;2022-07-06T12:34:42;27.90;42.00
17994;DHT22;9122;48.406;9.984;2022-07-06T12:37:27;27.80;42.10
17994;DHT22;9122;48.406;9.984;2022-07-06T12:40:13;27.80;43.20
17994;DHT22;9122;48.406;9.984;2022-07-06T12:42:58;27.80;42.70
17994;DHT22;9122;48.406;9.984;2022-07-06T12:45:44;27.80;42.70
17994;DHT22;9122;48.406;9.984;2022-07-06T12:48:29;27.80;41.70
17994;DHT22;9122;48.406;9.984;2022-07-06T12:51:14;27.80;41.90
17994;DHT22;9122;48.406;9.984;2022-07-06T12:54:12;27.80;42.30
17994;DHT22;9122;48.406;9.984;2022-07-06T13:02:38;27.80;41.90
17994;DHT22;9122;48.406;9.984;2022-07-06T13:05:26;27.80;41.20
17994;DHT22;9122;48.406;9.984;2022-07-06T13:08:14;27.80;41.70
17994;DHT22;9122;48.406;9.984;2022-07-06T13:10:59;27.80;41.40
17994;DHT22;9122;48.406;9.984;2022-07-06T13:13:44;27.80;41.80
17994;DHT22;9122;48.406;9.984;2022-07-06T13:16:28;27.80;41.50
17994;DHT22;9122;48.406;9.984;2022-07-06T13:19:18;27.80;41.00
17994;DHT22;9122;48.406;9.984;2022-07-06T13:22:03;27.80;41.10
17994;DHT22;9122;48.406;9.984;2022-07-06T13:24:57;27.80;41.20
17994;DHT22;9122;48.406;9.984;2022-07-06T13:27:42;27.80;41.10
17994;DHT22;9122;48.406;9.984;2022-07-06T13:30:27;27.80;41.20
17994;DHT22;9122;48.406;9.984;2022-07-06T13:33:12;27.70;41.30
17994;DHT22;9122;48.406;9.984;2022-07-06T13:35:56;27.70;41.20
17994;DHT22;9122;48.406;9.984;2022-07-06T13:38:41;27.70;41.40
17994;DHT22;9122;48.406;9.984;2022-07-06T13:41:25;27.60;41.00
17994;DHT22;9122;48.406;9.984;2022-07-06T13:44:10;27.60;40.70
17994;DHT22;9122;48.406;9.984;2022-07-06T13:46:55;27.60;41.20
17994;DHT22;9122;48.406;9.984;2022-07-06T13:49:40;27.50;41.10
17994;DHT22;9122;48.406;9.984;2022-07-06T13:52:24;27.50;41.00
17994;DHT22;9122;48.406;9.984;2022-07-06T13:55:09;27.50;41.50
17994;DHT22;9122;48.406;9.984;2022-07-06T13:57:53;27.50;41.80
17994;DHT22;9122;48.406;9.984;2022-07-06T14:00:38;27.50;41.70
17994;DHT22;9122;48.406;9.984;2022-07-06T14:03:22;27.40;41.60
17994;DHT22;9122;48.406;9.984;2022-07-06T14:06:13;27.40;41.60
17994;DHT22;9122;48.406;9.984;2022-07-06T14:09:00;27.40;42.30
17994;DHT22;9122;48.406;9.984;2022-07-06T14:11:44;27.40;42.90
17994;DHT22;9122;48.406;9.984;2022-07-06T14:14:29;27.40;43.70
17994;DHT22;9122;48.406;9.984;2022-07-06T14:17:13;27.40;43.80
17994;DHT22;9122;48.406;9.984;2022-07-06T14:19:57;27.40;43.90
17994;DHT22;9122;48.406;9.984;2022-07-06T14:22:42;27.30;44.10
17994;DHT22;9122;48.406;9.984;2022-07-06T14:25:26;27.30;44.50
17994;DHT22;9122;48.406;9.984;2022-07-06T14:28:11;27.30;44.60
17994;DHT22;9122;48.406;9.984;2022-07-06T14:30:59;27.30;44.80
17994;DHT22;9122;48.406;9.984;2022-07-06T14:33:45;27.30;44.90
17994;DHT22;9122;48.406;9.984;2022-07-06T14:36:30;27.20;45.10
17994;DHT22;9122;48.406;9.984;2022-07-06T14:39:15;27.20;45.20
17994;DHT22;9122;48.406;9.984;2022-07-06T14:42:00;27.20;46.00
17994;DHT22;9122;48.406;9.984;2022-07-06T14:44:44;27.20;45.40
17994;DHT22;9122;48.406;9.984;2022-07-06T14:47:29;27.10;45.60
17994;DHT22;9122;48.406;9.984;2022-07-06T14:50:14;27.10;45.80
17994;DHT22;9122;48.406;9.984;2022-07-06T14:52:59;27.00;46.10
17994;DHT22;9122;48.406;9.984;2022-07-06T14:55:43;27.00;46.50
17994;DHT22;9122;48.406;9.984;2022-07-06T14:58:27;27.00;46.70
17994;DHT22;9122;48.406;9.984;2022-07-06T15:01:11;27.00;46.90
17994;DHT22;9122;48.406;9.984;2022-07-06T15:03:56;26.90;47.00
17994;DHT22;9122;48.406;9.984;2022-07-06T15:06:41;26.80;47.10
17994;DHT22;9122;48.406;9.984;2022-07-06T15:09:25;26.80;46.90
17994;DHT22;9122;48.406;9.984;2022-07-06T15:12:12;26.70;47.20
17994;DHT22;9122;48.406;9.984;2022-07-06T15:14:57;26.70;47.20
17994;DHT22;9122;48.406;9.984;2022-07-06T15:17:41;26.70;47.70
17994;DHT22;9122;48.406;9.984;2022-07-06T15:20:26;26.60;47.90
17994;DHT22;9122;48.406;9.984;2022-07-06T15:23:10;26.60;48.00
17994;DHT22;9122;48.406;9.984;2022-07-06T15:25:55;26.60;48.50
17994;DHT22;9122;48.406;9.984;2022-07-06T15:28:40;26.50;49.00
17994;DHT22;9122;48.406;9.984;2022-07-06T15:31:24;26.50;49.00
17994;DHT22;9122;48.406;9.984;2022-07-06T15:34:09;26.40;49.10
17994;DHT22;9122;48.406;9.984;2022-07-06T15:36:54;26.40;48.50
17994;DHT22;9122;48.406;9.984;2022-07-06T15:39:39;26.40;48.90
17994;DHT22;9122;48.406;9.984;2022-07-06T15:42:24;26.40;49.00
17994;DHT22;9122;48.406;9.984;2022-07-06T15:45:09;26.40;49.00
17994;DHT22;9122;48.406;9.984;2022-07-06T15:47:54;26.30;49.10
17994;DHT22;9122;48.406;9.984;2022-07-06T15:50:38;26.30;49.20
17994;DHT22;9122;48.406;9.984;2022-07-06T15:53:23;26.20;49.20
17994;DHT22;9122;48.406;9.984;2022-07-06T15:56:07;26.20;49.40
17994;DHT22;9122;48.406;9.984;2022-07-06T15:58:52;26.20;49.80
17994;DHT22;9122;48.406;9.984;2022-07-06T16:01:36;26.10;49.90
17994;DHT22;9122;48.406;9.984;2022-07-06T16:04:21;26.10;50.00
17994;DHT22;9122;48.406;9.984;2022-07-06T16:07:05;26.10;50.00
17994;DHT22;9122;48.406;9.984;2022-07-06T16:09:50;26.10;49.80
17994;DHT22;9122;48.406;9.984;2022-07-06T16:12:35;26.10;49.90
17994;DHT22;9122;48.406;9.984;2022-07-06T16:15:19;26.00;50.20
17994;DHT22;9122;48.406;9.984;2022-07-06T16:18:04;26.00;50.50
17994;DHT22;9122;48.406;9.984;2022-07-06T16:20:49;26.00;50.20
17994;DHT22;9122;48.406;9.984;2022-07-06T16:23:34;26.00;50.30
17994;DHT22;9122;48.406;9.984;2022-07-06T16:26:18;25.90;50.30
17994;DHT22;9122;48.406;9.984;2022-07-06T16:29:03;25.90;50.60
17994;DHT22;9122;48.406;9.984;2022-07-06T16:31:47;25.90;50.80
17994;DHT22;9122;48.406;9.984;2022-07-06T16:34:32;25.80;50.80
17994;DHT22;9122;48.406;9.984;2022-07-06T16:37:17;25.80;50.80
17994;DHT22;9122;48.406;9.984;2022-07-06T16:40:01;25.80;50.90
17994;DHT22;9122;48.406;9.984;2022-07-06T16:42:46;25.70;50.70
17994;DHT22;9122;48.406;9.984;2022-07-06T16:45:30;25.70;50.80
17994;DHT22;9122;48.406;9.984;2022-07-06T16:48:15;25.60;50.90
17994;DHT22;9122;48.406;9.984;2022-07-06T16:50:59;25.60;50.60
17994;DHT22;9122;48.406;9.984;2022-07-06T16:53:46;25.60;50.60
17994;DHT22;9122;48.406;9.984;2022-07-06T16:56:30;25.50;50.70
17994;DHT22;9122;48.406;9.984;2022-07-06T16:59:15;25.50;50.70
17994;DHT22;9122;48.406;9.984;2022-07-06T17:01:59;25.50;50.70
17994;DHT22;9122;48.406;9.984;2022-07-06T17:04:44;25.50;50.70
17994;DHT22;9122;48.406;9.984;2022-07-06T17:07:29;25.40;50.40
17994;DHT22;9122;48.406;9.984;2022-07-06T17:10:13;25.40;49.90
17994;DHT22;9122;48.406;9.984;2022-07-06T17:12:58;25.40;50.00
17994;DHT22;9122;48.406;9.984;2022-07-06T17:15:43;25.40;50.00
17994;DHT22;9122;48.406;9.984;2022-07-06T17:18:27;25.40;50.20
17994;DHT22;9122;48.406;9.984;2022-07-06T17:21:12;25.40;50.10
17994;DHT22;9122;48.406;9.984;2022-07-06T17:23:56;25.40;50.00
17994;DHT22;9122;48.406;9.984;2022-07-06T17:26:41;25.40;50.00
17994;DHT22;9122;48.406;9.984;2022-07-06T17:29:26;25.30;49.70
17994;DHT22;9122;48.406;9.984;2022-07-06T17:32:10;25.30;49.60
17994;DHT22;9122;48.406;9.984;2022-07-06T17:34:55;25.20;49.50
17994;DHT22;9122;48.406;9.984;2022-07-06T17:37:40;25.20;49.50
17994;DHT22;9122;48.406;9.984;2022-07-06T17:40:24;25.10;49.30
17994;DHT22;9122;48.406;9.984;2022-07-06T17:43:09;25.10;49.40
17994;DHT22;9122;48.406;9.984;2022-07-06T17:45:54;25.00;49.50
17994;DHT22;9122;48.406;9.984;2022-07-06T17:48:38;25.00;49.50
17994;DHT22;9122;48.406;9.984;2022-07-06T17:51:23;24.90;49.70
17994;DHT22;9122;48.406;9.984;2022-07-06T17:54:07;24.90;49.80
17994;DHT22;9122;48.406;9.984;2022-07-06T17:56:51;24.90;49.60